Time;durP1;ratioP1;P1;durP2;ratioP2;P2;SDS_P1;SDS_P2;PMS_P1;PMS_P2;Temp;Humidity;BMP_temperature;BMP_pressure;BME280_temperature;BME280_humidity;BME280_pressure;Samples;Min_cycle;Max_cycle;Signal;HPM_P1;HPM_P2
2020/12/08 05:19:48;;;;;;;11.30;3.95;;;3.00;99.90;;;;;;4995396;23;20053;-66
2020/12/08 05:22:14;;;;;;;8.18;3.92;;;3.10;99.90;;;;;;4896027;29;20349;-67
2020/12/08 05:24:40;;;;;;;9.27;4.05;;;3.00;99.90;;;;;;4890259;29;20085;-67
2020/12/08 05:27:06;;;;;;;10.90;3.75;;;3.00;99.90;;;;;;4882844;29;20043;-68
2020/12/08 05:29:34;;;;;;;8.90;3.75;;;3.00;99.90;;;;;;4895828;29;20507;-67
2020/12/08 05:32:23;;;;;;;10.15;4.20;;;2.90;99.90;;;;;;4883023;29;20495;-72
2020/12/08 05:34:52;;;;;;;8.57;4.00;;;3.00;99.90;;;;;;4896200;29;20043;-76
2020/12/08 05:37:19;;;;;;;7.68;4.07;;;3.00;99.90;;;;;;4895622;29;20032;-73
2020/12/08 05:39:45;;;;;;;10.90;4.03;;;3.00;99.90;;;;;;4895795;29;20028;-73
2020/12/08 05:42:21;;;;;;;7.68;3.97;;;3.00;99.90;;;;;;4895689;29;20051;-74
2020/12/08 05:44:51;;;;;;;8.65;4.00;;;3.10;99.90;;;;;;4895908;29;20436;-74
2020/12/08 05:47:21;;;;;;;;;;;3.50;99.90;;;;;;4892937;29;20078;-76
2020/12/08 05:49:59;;;;;;;6.78;3.72;;;3.50;99.90;;;;;;4886374;29;19908;-72
2020/12/08 05:52:38;;;;;;;8.63;3.75;;;3.50;99.90;;;;;;4897667;29;20032;-72
2020/12/08 05:55:10;;;;;;;8.57;4.05;;;3.40;99.90;;;;;;4898971;29;20052;-76
2020/12/08 05:57:38;;;;;;;8.60;4.18;;;3.30;99.90;;;;;;4900393;29;20017;-78
2020/12/08 06:00:06;;;;;;;13.05;6.57;;;3.30;99.90;;;;;;4891496;29;20362;-78
2020/12/08 06:02:32;;;;;;;13.18;6.30;;;3.30;99.90;;;;;;4885886;29;20108;-79
2020/12/08 06:05:00;;;;;;;16.70;8.45;;;3.30;99.90;;;;;;4892721;29;20157;-78
2020/12/08 06:07:31;;;;;;;12.00;6.13;;;3.40;99.90;;;;;;4894393;29;20134;-79
2020/12/08 06:10:11;;;;;;;7.97;4.43;;;3.40;99.90;;;;;;4890881;29;20071;-78
2020/12/08 06:12:38;;;;;;;11.95;4.47;;;3.40;99.90;;;;;;4897384;29;20033;-78
2020/12/08 06:15:24;;;;;;;10.00;4.53;;;3.30;99.90;;;;;;4888679;29;20080;-79
2020/12/08 06:17:51;;;;;;;7.15;3.88;;;3.30;99.90;;;;;;4884332;29;20610;-78
2020/12/08 06:20:17;;;;;;;10.27;4.35;;;3.30;99.90;;;;;;4880975;29;20048;-74
2020/12/08 06:22:59;;;;;;;7.40;4.15;;;3.30;99.90;;;;;;4891621;29;20029;-74
2020/12/08 06:25:25;;;;;;;9.57;4.32;;;3.20;99.90;;;;;;4885101;29;20029;-75
2020/12/08 06:27:55;;;;;;;6.95;4.05;;;3.20;99.90;;;;;;4897701;29;20043;-72
2020/12/08 06:30:21;;;;;;;12.45;4.38;;;3.30;99.90;;;;;;4885507;29;20397;-72
2020/12/08 06:32:48;;;;;;;7.75;3.90;;;3.40;99.90;;;;;;4886902;29;20033;-72
2020/12/08 06:35:16;;;;;;;9.05;4.25;;;3.30;99.90;;;;;;4897062;29;20024;-72
2020/12/08 06:37:53;;;;;;;7.88;4.22;;;3.20;99.90;;;;;;4898372;29;20029;-72
2020/12/08 06:40:23;;;;;;;10.75;4.75;;;3.20;99.90;;;;;;4898069;29;20028;-72
2020/12/08 06:42:50;;;;;;;10.32;4.93;;;3.10;99.90;;;;;;4888145;29;20056;-72
2020/12/08 06:45:24;;;;;;;11.70;4.60;;;3.10;99.90;;;;;;4895458;29;20734;-73
2020/12/08 06:47:51;;;;;;;8.43;4.60;;;3.00;99.90;;;;;;4898595;29;20073;-72
2020/12/08 06:50:29;;;;;;;6.97;4.28;;;3.00;99.90;;;;;;4897905;29;20116;-73
2020/12/08 06:53:00;;;;;;;12.02;4.57;;;3.00;99.90;;;;;;4898212;29;20040;-73
2020/12/08 06:55:27;;;;;;;7.70;4.38;;;3.00;99.90;;;;;;4898159;29;20127;-72
2020/12/08 06:57:53;;;;;;;8.75;4.85;;;3.00;99.90;;;;;;4898010;29;20025;-73
2020/12/08 07:00:19;;;;;;;9.18;4.63;;;2.90;99.90;;;;;;4897868;29;20037;-75
2020/12/08 07:02:51;;;;;;;9.38;4.45;;;2.90;99.90;;;;;;4897587;29;20024;-75
2020/12/08 07:05:19;;;;;;;13.48;4.95;;;3.00;99.90;;;;;;4897765;29;20032;-79
2020/12/08 07:07:46;;;;;;;9.10;5.75;;;3.00;99.90;;;;;;4896670;29;20032;-79
2020/12/08 07:10:13;;;;;;;10.65;5.07;;;3.10;99.90;;;;;;4897757;29;20040;-76
2020/12/08 07:12:49;;;;;;;9.02;4.90;;;3.20;99.90;;;;;;4893500;29;20037;-74
2020/12/08 07:15:20;;;;;;;7.43;4.65;;;3.10;99.90;;;;;;4890112;29;20426;-74
2020/12/08 07:18:18;;;;;;;12.57;4.78;;;3.10;99.90;;;;;;4893979;29;20385;-74
2020/12/08 07:20:45;;;;;;;9.93;4.50;;;3.00;99.90;;;;;;4864422;29;20040;-74
2020/12/08 07:23:12;;;;;;;12.68;4.55;;;3.00;99.90;;;;;;4897488;29;20472;-74
2020/12/08 07:25:38;;;;;;;9.68;4.80;;;3.00;99.90;;;;;;4897250;29;20040;-75
2020/12/08 07:28:04;;;;;;;8.85;4.57;;;3.00;99.90;;;;;;4897364;29;20036;-77
2020/12/08 07:30:31;;;;;;;11.45;4.97;;;3.10;99.90;;;;;;4897189;29;20494;-76
2020/12/08 07:33:08;;;;;;;12.13;5.00;;;3.10;99.90;;;;;;4897425;29;20028;-76
2020/12/08 07:35:36;;;;;;;8.32;4.28;;;3.00;99.90;;;;;;4896679;29;20116;-77
2020/12/08 07:38:03;;;;;;;11.18;5.20;;;3.10;99.90;;;;;;4897336;29;20100;-81
2020/12/08 07:40:36;;;;;;;8.05;4.20;;;3.10;99.90;;;;;;4893085;29;20029;-74
2020/12/08 07:43:04;;;;;;;10.05;4.85;;;3.00;99.90;;;;;;4894365;29;20036;-72
2020/12/08 07:45:41;;;;;;;8.65;4.93;;;3.00;99.90;;;;;;4899675;29;20035;-74
2020/12/08 07:48:09;;;;;;;7.90;4.55;;;3.00;99.90;;;;;;4901959;29;20040;-85
2020/12/08 07:50:35;;;;;;;11.82;4.72;;;3.00;99.90;;;;;;4896726;29;20027;-76
2020/12/08 07:53:06;;;;;;;10.52;4.75;;;3.00;99.90;;;;;;4895793;29;20032;-73
2020/12/08 07:55:43;;;;;;;10.70;5.00;;;3.00;99.90;;;;;;4895459;29;20077;-85
2020/12/08 07:58:09;;;;;;;11.63;5.20;;;3.00;99.90;;;;;;4892833;29;20594;-83
2020/12/08 08:00:35;;;;;;;9.15;4.85;;;2.90;99.90;;;;;;4896091;29;20453;-85
2020/12/08 08:03:02;;;;;;;9.23;5.45;;;2.90;99.90;;;;;;4895301;29;20064;-84
2020/12/08 08:05:28;;;;;;;7.97;4.38;;;2.90;99.90;;;;;;4896657;29;20088;-83
2020/12/08 08:07:54;;;;;;;16.88;5.68;;;2.80;99.90;;;;;;4897277;29;20044;-84
2020/12/08 08:10:20;;;;;;;10.65;4.85;;;2.80;99.90;;;;;;4896758;29;20496;-84
2020/12/08 08:12:46;;;;;;;8.18;4.72;;;2.90;99.90;;;;;;4894952;29;20032;-82
2020/12/08 08:15:11;;;;;;;8.07;5.18;;;2.90;99.90;;;;;;4896830;29;20021;-84
2020/12/08 08:17:37;;;;;;;7.28;4.85;;;2.90;99.90;;;;;;4895679;29;20039;-84
2020/12/08 08:20:05;;;;;;;12.18;6.47;;;2.90;99.90;;;;;;4887298;29;20051;-85
2020/12/08 08:22:31;;;;;;;22.85;17.08;;;2.90;99.90;;;;;;4891771;29;20060;-86
2020/12/08 08:24:57;;;;;;;32.90;21.75;;;3.00;99.90;;;;;;4891971;29;20056;-90
2020/12/08 08:27:23;;;;;;;22.00;14.45;;;3.00;99.90;;;;;;4892439;29;20068;-90
2020/12/08 08:29:49;;;;;;;11.35;6.35;;;3.00;99.90;;;;;;4897364;29;20035;-85
2020/12/08 08:32:15;;;;;;;9.77;4.80;;;3.00;99.90;;;;;;4896755;29;20036;-85
2020/12/08 08:34:40;;;;;;;7.63;4.20;;;3.00;99.90;;;;;;4894702;29;20042;-83
2020/12/08 08:37:06;;;;;;;15.82;5.57;;;2.90;99.90;;;;;;4896616;29;20028;-87
2020/12/08 08:39:32;;;;;;;7.40;5.00;;;2.80;99.90;;;;;;4885432;29;20045;-85
2020/12/08 08:41:58;;;;;;;11.77;5.72;;;2.70;99.90;;;;;;4894480;29;20099;-86
2020/12/08 08:44:24;;;;;;;10.75;5.63;;;2.70;99.90;;;;;;4896816;29;20384;-84
2020/12/08 08:46:50;;;;;;;7.50;5.05;;;2.70;99.90;;;;;;4896148;29;20494;-83
2020/12/08 08:49:15;;;;;;;16.92;5.25;;;2.60;99.90;;;;;;4896479;29;20842;-84
2020/12/08 08:51:46;;;;;;;10.00;5.15;;;2.60;99.90;;;;;;4895940;29;20077;-82
2020/12/08 08:54:16;;;;;;;7.60;4.57;;;2.60;99.90;;;;;;4894148;29;20017;-85
2020/12/08 08:56:42;;;;;;;10.50;5.15;;;2.50;99.90;;;;;;4892271;29;20029;-81
2020/12/08 08:59:09;;;;;;;8.85;4.47;;;2.50;99.90;;;;;;4896064;29;20036;-82
2020/12/08 09:01:35;;;;;;;10.00;5.00;;;2.60;99.90;;;;;;4891180;29;20389;-86
2020/12/08 09:04:02;;;;;;;9.15;4.80;;;2.50;99.90;;;;;;4896360;29;20039;-82
2020/12/08 09:06:28;;;;;;;10.25;4.75;;;2.60;99.90;;;;;;4896127;29;20055;-86
2020/12/08 09:08:54;;;;;;;13.20;5.00;;;2.70;99.90;;;;;;4896263;29;20024;-84
2020/12/08 09:11:19;;;;;;;10.27;4.93;;;2.60;99.90;;;;;;4896047;29;20040;-84
2020/12/08 09:13:47;;;;;;;13.13;5.30;;;2.50;99.90;;;;;;4896278;29;20443;-77
2020/12/08 09:16:13;;;;;;;9.48;5.10;;;2.50;99.90;;;;;;4896015;29;20424;-77
2020/12/08 09:18:39;;;;;;;6.13;4.53;;;2.50;99.90;;;;;;4889514;29;20093;-79
2020/12/08 09:21:04;;;;;;;14.10;5.00;;;2.40;99.90;;;;;;4895210;29;20025;-79
2020/12/08 09:23:30;;;;;;;9.75;5.22;;;2.50;99.90;;;;;;4895385;29;20028;-79
2020/12/08 09:25:58;;;;;;;10.32;5.53;;;2.60;99.90;;;;;;4897465;29;20059;-80
2020/12/08 09:28:25;;;;;;;13.10;5.20;;;2.70;99.90;;;;;;4899826;29;20037;-74
2020/12/08 09:30:51;;;;;;;8.13;4.13;;;2.80;99.90;;;;;;4899672;29;20053;-78
2020/12/08 09:33:17;;;;;;;11.27;4.47;;;2.70;99.90;;;;;;4899486;29;20037;-78
2020/12/08 09:35:43;;;;;;;11.07;4.97;;;2.60;99.90;;;;;;4899562;29;20048;-75
2020/12/08 09:38:10;;;;;;;12.68;5.45;;;2.50;99.90;;;;;;4899231;29;20029;-74
2020/12/08 09:40:37;;;;;;;11.95;5.15;;;2.50;99.90;;;;;;4898632;29;20028;-74
2020/12/08 09:43:03;;;;;;;8.02;4.85;;;2.50;99.90;;;;;;4892621;29;20480;-73
2020/12/08 09:45:30;;;;;;;9.48;5.20;;;2.50;99.90;;;;;;4889649;29;20033;-73
2020/12/08 09:47:55;;;;;;;6.85;4.20;;;2.40;99.90;;;;;;4898891;29;20044;-72
2020/12/08 09:50:21;;;;;;;12.13;4.88;;;2.40;99.90;;;;;;4896326;29;20573;-73
2020/12/08 09:52:47;;;;;;;9.73;5.10;;;2.30;99.90;;;;;;4893048;29;20142;-72
2020/12/08 09:55:13;;;;;;;12.57;5.47;;;2.40;99.90;;;;;;4898851;29;20024;-73
2020/12/08 09:57:39;;;;;;;12.60;5.03;;;2.40;99.90;;;;;;4889138;29;20099;-73
2020/12/08 10:00:06;;;;;;;10.75;4.88;;;2.40;99.90;;;;;;4899001;29;20040;-72
2020/12/08 10:02:33;;;;;;;12.77;4.85;;;2.30;99.90;;;;;;4898920;29;20031;-72
2020/12/08 10:04:58;;;;;;;10.60;4.40;;;2.30;99.90;;;;;;4899150;29;20024;-72
2020/12/08 10:07:24;;;;;;;8.23;4.90;;;2.30;99.90;;;;;;4898668;29;20440;-72
2020/12/08 10:09:51;;;;;;;12.98;5.35;;;2.20;99.90;;;;;;4898902;29;20052;-72
2020/12/08 10:12:17;;;;;;;8.40;4.78;;;2.30;99.90;;;;;;4898782;29;20502;-73
2020/12/08 10:14:44;;;;;;;12.70;4.82;;;2.20;99.90;;;;;;4901637;29;20029;-74
2020/12/08 10:17:14;;;;;;;9.07;4.95;;;2.20;99.90;;;;;;4896261;29;20041;-78
2020/12/08 10:19:42;;;;;;;9.07;4.88;;;2.20;99.90;;;;;;4891944;29;20099;-79
2020/12/08 10:22:08;;;;;;;10.48;4.80;;;2.20;99.90;;;;;;4898997;29;20369;-80
2020/12/08 10:24:34;;;;;;;8.70;4.90;;;2.20;99.90;;;;;;4894439;29;20084;-77
2020/12/08 10:27:00;;;;;;;7.60;4.63;;;2.20;99.90;;;;;;4889790;29;20093;-74
2020/12/08 10:29:25;;;;;;;10.27;4.88;;;2.20;99.90;;;;;;4891566;29;20112;-77
2020/12/08 10:31:52;;;;;;;11.15;4.72;;;2.20;99.90;;;;;;4895074;29;20038;-76
2020/12/08 10:34:19;;;;;;;8.93;4.72;;;2.20;99.90;;;;;;4894650;29;20025;-76
2020/12/08 10:36:46;;;;;;;10.63;4.93;;;2.30;99.90;;;;;;4897981;29;20056;-78
2020/12/08 10:39:12;;;;;;;9.38;5.28;;;2.20;99.90;;;;;;4897663;29;20063;-78
2020/12/08 10:41:38;;;;;;;9.13;5.18;;;2.30;99.90;;;;;;4896706;29;20453;-94
2020/12/08 10:44:06;;;;;;;9.38;4.97;;;2.30;99.90;;;;;;4890898;29;20028;-82
2020/12/08 10:46:33;;;;;;;10.88;5.90;;;2.30;99.90;;;;;;4898032;29;20041;-80
2020/12/08 10:49:18;;;;;;;12.00;4.93;;;2.30;99.90;;;;;;4885079;29;20105;-82
2020/12/08 10:54:46;;;;;;;7.57;4.18;;;2.40;99.90;;;;;;4879517;29;20035;-86
2020/12/08 10:57:12;;;;;;;8.18;4.68;;;2.50;99.90;;;;;;4886999;29;20028;-85
2020/12/08 10:59:38;;;;;;;10.23;4.88;;;2.80;99.90;;;;;;4895042;29;20083;-82
2020/12/08 11:02:03;;;;;;;9.80;4.50;;;2.70;99.90;;;;;;4897606;29;20036;-82
2020/12/08 11:04:30;;;;;;;11.80;4.97;;;2.70;99.90;;;;;;4903171;29;20024;-79
2020/12/08 11:06:59;;;;;;;10.00;4.30;;;2.60;99.90;;;;;;4897658;29;20445;-83
2020/12/08 11:09:25;;;;;;;7.20;4.53;;;2.80;99.90;;;;;;4897276;29;20039;-80
2020/12/08 11:11:51;;;;;;;10.68;4.22;;;2.70;99.90;;;;;;4892294;29;20071;-81
2020/12/08 11:14:17;;;;;;;8.48;4.45;;;2.60;99.90;;;;;;4893960;29;20096;-79
2020/12/08 11:16:42;;;;;;;10.25;4.55;;;2.60;99.90;;;;;;4897268;29;20032;-79
2020/12/08 11:19:08;;;;;;;12.65;4.30;;;2.60;99.90;;;;;;4897303;29;20048;-80
2020/12/08 11:21:38;;;;;;;9.23;4.50;;;2.60;99.90;;;;;;4897081;29;20065;-81
2020/12/08 11:24:05;;;;;;;8.93;4.55;;;2.50;99.90;;;;;;4888708;29;20110;-82
2020/12/08 11:26:32;;;;;;;15.35;4.50;;;2.50;99.90;;;;;;4897157;29;20060;-81
2020/12/08 11:28:58;;;;;;;15.05;6.97;;;2.40;99.90;;;;;;4897425;29;20021;-80
2020/12/08 11:31:24;;;;;;;10.82;5.00;;;2.40;99.90;;;;;;4897033;29;20025;-80
2020/12/08 11:33:50;;;;;;;11.20;4.38;;;2.40;99.90;;;;;;4897201;29;20047;-80
2020/12/08 11:36:16;;;;;;;9.07;4.70;;;2.50;99.90;;;;;;4897544;29;20124;-79
2020/12/08 11:38:42;;;;;;;9.88;4.88;;;2.40;99.90;;;;;;4897014;29;20028;-79
2020/12/08 11:41:08;;;;;;;10.48;5.90;;;2.40;99.90;;;;;;4896868;29;20039;-83
2020/12/08 11:43:36;;;;;;;10.43;5.15;;;2.50;99.90;;;;;;4896926;29;20017;-76
2020/12/08 11:46:02;;;;;;;7.63;4.22;;;2.50;99.90;;;;;;4897190;29;20412;-78
2020/12/08 11:48:28;;;;;;;12.55;5.03;;;2.50;99.90;;;;;;4896788;29;20035;-80
2020/12/08 11:50:54;;;;;;;10.93;4.70;;;2.50;99.90;;;;;;4896775;29;20028;-78
2020/12/08 11:53:20;;;;;;;10.13;4.18;;;2.50;99.90;;;;;;4897048;29;20481;-73
2020/12/08 11:55:45;;;;;;;9.52;4.82;;;2.50;99.90;;;;;;4897009;29;20043;-74
2020/12/08 11:58:11;;;;;;;8.82;4.80;;;2.50;99.90;;;;;;4896806;29;20458;-73
2020/12/08 12:00:37;;;;;;;8.77;4.80;;;2.50;99.90;;;;;;4896503;29;20037;-73
2020/12/08 12:03:04;;;;;;;10.68;4.80;;;2.60;99.90;;;;;;4896452;29;20028;-73
2020/12/08 12:05:30;;;;;;;9.18;5.38;;;2.60;99.90;;;;;;4896084;29;20481;-73
2020/12/08 12:07:55;;;;;;;11.43;4.72;;;2.60;99.90;;;;;;4901639;29;20025;-74
2020/12/08 12:10:21;;;;;;;12.10;5.22;;;2.60;99.90;;;;;;4896441;29;20031;-75
2020/12/08 12:12:47;;;;;;;10.45;5.40;;;2.40;99.90;;;;;;4896223;29;20029;-77
2020/12/08 12:15:12;;;;;;;7.63;5.25;;;2.40;99.90;;;;;;4890321;29;20056;-78
2020/12/08 12:17:38;;;;;;;8.93;4.88;;;2.40;99.90;;;;;;4882141;29;20799;-78
2020/12/08 12:20:07;;;;;;;13.38;4.95;;;2.40;99.90;;;;;;4886071;29;20085;-77
2020/12/08 12:22:33;;;;;;;8.73;4.85;;;2.40;99.90;;;;;;4890185;29;20024;-82
2020/12/08 12:24:59;;;;;;;11.73;5.10;;;2.40;99.90;;;;;;4888330;29;20065;-81
2020/12/08 12:27:25;;;;;;;14.52;4.70;;;2.40;99.90;;;;;;4888161;29;20064;-82
2020/12/08 12:29:51;;;;;;;8.70;4.53;;;2.40;99.90;;;;;;4893747;29;20033;-82
2020/12/08 12:32:17;;;;;;;11.70;4.93;;;2.40;99.90;;;;;;4884524;29;20040;-82
2020/12/08 12:34:43;;;;;;;7.70;4.18;;;2.40;99.90;;;;;;4887760;29;20036;-81
2020/12/08 12:37:09;;;;;;;9.68;5.05;;;2.40;99.90;;;;;;4898973;29;20052;-85
2020/12/08 12:39:35;;;;;;;9.88;4.80;;;2.30;99.90;;;;;;4910592;29;20028;-85
2020/12/08 12:42:01;;;;;;;11.77;4.85;;;2.40;99.90;;;;;;4897423;29;20096;-82
2020/12/08 12:44:28;;;;;;;9.00;4.93;;;3.30;99.90;;;;;;4896445;29;20021;-77
2020/12/08 12:46:54;;;;;;;7.05;4.47;;;3.70;99.90;;;;;;4904533;29;20099;-70
2020/12/08 12:49:21;;;;;;;7.97;4.85;;;3.40;99.90;;;;;;4885455;29;20091;-71
2020/12/08 12:51:47;;;;;;;13.88;4.82;;;3.20;99.90;;;;;;4900273;29;20028;-71
2020/12/08 12:54:14;;;;;;;8.93;4.95;;;3.00;99.90;;;;;;4898490;29;20475;-71
2020/12/08 12:56:40;;;;;;;10.77;5.22;;;2.90;99.90;;;;;;4902481;29;20029;-73
2020/12/08 12:59:07;;;;;;;13.18;4.85;;;2.70;99.90;;;;;;4895333;29;20157;-71
2020/12/08 13:01:34;;;;;;;8.55;4.63;;;2.80;99.90;;;;;;4898284;29;20108;-71
2020/12/08 13:04:00;;;;;;;8.05;4.97;;;2.70;99.90;;;;;;4900731;29;20024;-71
2020/12/08 13:06:25;;;;;;;10.23;5.03;;;2.70;99.90;;;;;;4899002;29;20480;-71
2020/12/08 13:08:51;;;;;;;10.43;5.43;;;2.70;99.90;;;;;;4895083;29;20027;-71
2020/12/08 13:11:17;;;;;;;13.27;5.32;;;2.70;99.90;;;;;;4899433;29;20384;-71
2020/12/08 13:13:43;;;;;;;8.85;4.95;;;2.70;99.90;;;;;;4899264;29;20035;-71
2020/12/08 13:16:13;;;;;;;9.13;5.05;;;2.70;99.90;;;;;;4899663;29;20357;-72
2020/12/08 13:18:40;;;;;;;9.93;6.03;;;3.10;99.90;;;;;;4899211;29;20044;-69
2020/12/08 13:21:06;;;;;;;9.00;5.38;;;3.10;99.90;;;;;;4899145;29;20387;-71
2020/12/08 13:23:33;;;;;;;7.18;4.65;;;2.90;99.90;;;;;;4899151;29;20028;-71
2020/12/08 13:26:03;;;;;;;9.02;4.88;;;2.70;99.90;;;;;;4902325;29;20062;-71
2020/12/08 13:28:32;;;;;;;11.73;5.30;;;2.80;99.90;;;;;;4888240;29;20036;-71
2020/12/08 13:31:08;;;;;;;8.32;4.97;;;2.70;99.90;;;;;;4899349;29;20040;-74
2020/12/08 13:33:33;;;;;;;9.10;5.10;;;2.70;99.90;;;;;;4898013;29;20080;-75
2020/12/08 13:36:00;;;;;;;12.48;5.45;;;2.70;99.90;;;;;;4899150;29;20021;-75
2020/12/08 13:38:26;;;;;;;9.77;5.68;;;2.60;99.90;;;;;;4899051;29;20037;-75
2020/12/08 13:40:52;;;;;;;9.77;5.15;;;2.50;99.90;;;;;;4898796;29;20384;-76
2020/12/08 13:43:18;;;;;;;12.82;5.80;;;2.60;99.90;;;;;;4899062;29;20059;-76
2020/12/08 13:45:45;;;;;;;8.57;4.95;;;2.50;99.90;;;;;;4898356;29;20088;-73
2020/12/08 13:48:12;;;;;;;8.18;5.45;;;2.50;99.90;;;;;;4897202;29;20119;-74
2020/12/08 13:50:37;;;;;;;10.45;5.72;;;2.50;99.90;;;;;;4898138;29;20167;-74
2020/12/08 13:53:03;;;;;;;10.02;5.90;;;2.50;99.90;;;;;;4896921;29;20520;-74
2020/12/08 13:55:31;;;;;;;10.82;6.05;;;2.50;99.90;;;;;;4898754;29;20028;-75
2020/12/08 13:57:57;;;;;;;9.73;5.85;;;2.50;99.90;;;;;;4894737;29;20067;-75
2020/12/08 14:00:23;;;;;;;9.88;5.88;;;2.60;99.90;;;;;;4893759;29;20492;-76
2020/12/08 14:02:49;;;;;;;9.88;6.32;;;2.60;99.90;;;;;;4893153;29;20193;-75
2020/12/08 14:05:15;;;;;;;10.30;6.03;;;2.50;99.90;;;;;;4895346;29;20021;-75
2020/12/08 14:07:41;;;;;;;11.00;6.18;;;2.50;99.90;;;;;;4892378;29;20477;-78
2020/12/08 14:10:06;;;;;;;10.60;5.97;;;2.50;99.90;;;;;;4895679;29;20029;-74
2020/12/08 14:12:35;;;;;;;13.57;6.55;;;2.50;99.90;;;;;;4895545;29;20029;-74
2020/12/08 14:15:01;;;;;;;11.73;6.95;;;2.50;99.90;;;;;;4889620;29;20040;-74
2020/12/08 14:17:27;;;;;;;18.15;6.28;;;2.50;99.90;;;;;;4892903;29;20029;-76
2020/12/08 14:19:52;;;;;;;10.45;5.78;;;2.50;99.90;;;;;;4893193;29;20123;-76
2020/12/08 14:22:18;;;;;;;12.30;6.13;;;2.60;99.90;;;;;;4896147;29;20036;-76
2020/12/08 14:24:44;;;;;;;17.05;6.60;;;2.60;99.90;;;;;;4892568;29;20084;-76
2020/12/08 14:27:10;;;;;;;14.10;6.72;;;2.50;99.90;;;;;;4898258;29;20036;-76
2020/12/08 14:29:36;;;;;;;12.98;6.10;;;2.50;99.90;;;;;;4895774;29;20033;-77
2020/12/08 14:32:01;;;;;;;11.50;6.30;;;2.50;99.90;;;;;;4892082;29;20033;-77
2020/12/08 14:34:27;;;;;;;13.73;7.15;;;2.50;99.90;;;;;;4892834;29;20029;-79
2020/12/08 14:36:53;;;;;;;16.08;6.72;;;2.60;99.90;;;;;;4895565;29;20568;-78
2020/12/08 14:39:46;;;;;;;14.88;6.45;;;2.60;99.90;;;;;;4888004;29;20029;-75
2020/12/08 14:42:17;;;;;;;13.32;6.90;;;2.50;99.90;;;;;;4896866;29;20024;-76
2020/12/08 14:44:43;;;;;;;11.02;5.95;;;2.50;99.90;;;;;;4897196;29;20025;-77
2020/12/08 14:47:09;;;;;;;11.63;6.72;;;2.50;99.90;;;;;;4887343;29;20039;-77
2020/12/08 14:49:35;;;;;;;14.10;6.72;;;2.40;99.90;;;;;;4897638;29;20103;-76
2020/12/08 14:52:01;;;;;;;11.38;6.03;;;2.50;99.90;;;;;;4886674;29;20029;-78
2020/12/08 14:54:27;;;;;;;11.10;5.82;;;2.40;99.90;;;;;;4897661;29;20500;-76
2020/12/08 14:56:57;;;;;;;15.10;6.72;;;2.40;99.90;;;;;;4894330;29;20048;-76
2020/12/08 14:59:24;;;;;;;14.32;6.47;;;2.40;99.90;;;;;;4886959;29;20025;-76
2020/12/08 15:01:51;;;;;;;12.45;6.13;;;2.50;99.90;;;;;;4891370;29;20025;-73
2020/12/08 15:04:16;;;;;;;16.20;7.30;;;2.50;99.90;;;;;;4888279;29;20016;-75
2020/12/08 15:06:51;;;;;;;20.92;6.57;;;2.50;99.90;;;;;;4897442;29;20155;-76
2020/12/08 15:09:17;;;;;;;13.45;6.28;;;2.50;99.90;;;;;;4891423;29;20025;-76
2020/12/08 15:11:46;;;;;;;18.25;6.57;;;2.50;99.90;;;;;;4896155;29;20477;-76
2020/12/08 15:14:12;;;;;;;16.05;7.05;;;2.50;99.90;;;;;;4891842;29;20376;-77
2020/12/08 15:16:38;;;;;;;12.93;6.95;;;2.50;99.90;;;;;;4893982;29;20052;-75
2020/12/08 15:19:04;;;;;;;15.25;6.78;;;2.50;99.90;;;;;;4890140;29;20385;-75
2020/12/08 15:21:30;;;;;;;17.52;7.32;;;2.50;99.90;;;;;;4894468;29;20036;-78
2020/12/08 15:23:56;;;;;;;14.02;6.38;;;2.50;99.90;;;;;;4889146;29;20380;-78
2020/12/08 15:26:22;;;;;;;15.98;6.63;;;2.70;99.90;;;;;;4895514;29;20048;-78
2020/12/08 15:28:48;;;;;;;15.77;6.63;;;2.70;99.90;;;;;;4890756;29;20691;-78
2020/12/08 15:31:14;;;;;;;11.75;6.80;;;2.60;99.90;;;;;;4896027;29;20034;-78
2020/12/08 15:33:40;;;;;;;13.85;7.07;;;2.60;99.90;;;;;;4896309;29;20036;-78
2020/12/08 15:36:05;;;;;;;18.40;7.03;;;2.60;99.90;;;;;;4896492;29;20485;-79
2020/12/08 15:38:31;;;;;;;15.07;6.85;;;2.60;99.90;;;;;;4897935;29;20120;-77
2020/12/08 15:40:59;;;;;;;12.40;6.30;;;2.50;99.90;;;;;;4903233;29;20067;-78
2020/12/08 15:43:27;;;;;;;11.07;6.57;;;2.50;99.90;;;;;;4904669;29;20025;-78
2020/12/08 15:45:54;;;;;;;14.45;6.90;;;2.50;99.90;;;;;;4896807;29;20036;-77
2020/12/08 15:48:20;;;;;;;14.77;7.25;;;2.50;99.90;;;;;;4892250;29;20393;-78
2020/12/08 15:50:46;;;;;;;16.27;6.70;;;2.50;99.90;;;;;;4896830;29;20028;-79
2020/12/08 15:53:12;;;;;;;14.43;7.53;;;2.60;99.90;;;;;;4896625;29;20032;-77
2020/12/08 15:55:37;;;;;;;15.85;5.95;;;2.60;99.90;;;;;;4896621;29;20075;-77
2020/12/08 15:58:05;;;;;;;15.68;6.38;;;2.60;99.90;;;;;;4882155;29;20103;-78
2020/12/08 16:00:31;;;;;;;19.38;6.78;;;2.50;99.90;;;;;;4897013;29;20096;-77
2020/12/08 16:02:56;;;;;;;17.83;6.70;;;2.50;99.90;;;;;;4896783;29;20075;-77
2020/12/08 16:05:22;;;;;;;13.70;6.45;;;2.50;99.90;;;;;;4897129;29;20134;-77
2020/12/08 16:07:48;;;;;;;18.58;7.13;;;2.50;99.90;;;;;;4896503;29;20044;-77
2020/12/08 16:10:14;;;;;;;16.35;6.07;;;2.50;99.90;;;;;;4895615;29;20039;-77
2020/12/08 16:12:40;;;;;;;16.27;7.75;;;2.60;99.90;;;;;;4896990;29;20128;-76
2020/12/08 16:15:07;;;;;;;12.13;7.22;;;2.50;99.90;;;;;;4896829;29;20069;-77
2020/12/08 16:17:34;;;;;;;14.48;6.70;;;2.50;99.90;;;;;;4896495;29;20033;-78
2020/12/08 16:20:00;;;;;;;14.35;6.55;;;2.50;99.90;;;;;;4886552;29;20052;-78
2020/12/08 16:22:26;;;;;;;17.98;7.63;;;2.50;99.90;;;;;;4884543;29;20036;-77
2020/12/08 16:24:52;;;;;;;12.77;6.65;;;2.50;99.90;;;;;;4897010;29;20033;-78
2020/12/08 16:27:17;;;;;;;13.57;6.82;;;2.50;99.90;;;;;;4889066;29;20048;-78
2020/12/08 16:29:43;;;;;;;15.25;7.20;;;2.50;99.90;;;;;;4891962;29;20512;-77
2020/12/08 16:32:09;;;;;;;16.63;7.30;;;2.50;99.90;;;;;;4896338;29;20035;-76
2020/12/08 16:34:35;;;;;;;19.63;7.13;;;2.50;99.90;;;;;;4883277;29;20036;-78
2020/12/08 16:37:00;;;;;;;15.75;7.53;;;2.40;99.90;;;;;;4878691;29;20037;-78
2020/12/08 16:39:26;;;;;;;12.48;7.25;;;2.40;99.90;;;;;;4884324;29;20025;-81
2020/12/08 16:41:52;;;;;;;16.08;7.43;;;2.40;99.90;;;;;;4896234;29;20030;-76
2020/12/08 16:44:17;;;;;;;16.13;7.07;;;2.40;99.90;;;;;;4896710;29;20035;-75
2020/12/08 16:46:43;;;;;;;15.57;7.65;;;2.40;99.90;;;;;;4896383;29;20496;-78
2020/12/08 16:49:09;;;;;;;18.30;8.43;;;2.40;99.90;;;;;;4896495;29;20028;-76
2020/12/08 16:51:36;;;;;;;15.07;7.53;;;2.40;99.90;;;;;;4892423;29;20044;-75
2020/12/08 16:54:03;;;;;;;16.45;7.72;;;2.40;99.90;;;;;;4887592;29;20505;-75
2020/12/08 16:56:29;;;;;;;15.30;7.20;;;2.40;99.90;;;;;;4896889;29;20025;-75
2020/12/08 16:58:56;;;;;;;18.95;7.60;;;3.40;99.90;;;;;;4895589;29;20088;-75
2020/12/08 17:01:21;;;;;;;17.02;7.93;;;3.30;99.90;;;;;;4900546;29;20115;-75
2020/12/08 17:03:47;;;;;;;16.92;7.28;;;3.00;99.90;;;;;;4896387;29;20105;-75
2020/12/08 17:06:13;;;;;;;22.95;8.48;;;2.80;99.90;;;;;;4896173;29;20029;-75
2020/12/08 17:08:39;;;;;;;17.33;8.55;;;2.70;99.90;;;;;;4896303;29;20039;-75
2020/12/08 17:11:05;;;;;;;16.75;8.63;;;2.70;99.90;;;;;;4896296;29;20543;-75
2020/12/08 17:13:31;;;;;;;20.15;8.60;;;2.60;99.90;;;;;;4898058;29;20491;-78
2020/12/08 17:15:56;;;;;;;18.98;8.98;;;2.50;99.90;;;;;;4900003;29;20036;-75
2020/12/08 17:18:22;;;;;;;18.50;8.32;;;2.50;99.90;;;;;;4897658;29;20063;-75
2020/12/08 17:20:48;;;;;;;13.80;8.15;;;2.50;99.90;;;;;;4896575;29;20055;-75
2020/12/08 17:23:13;;;;;;;16.73;7.93;;;2.50;99.90;;;;;;4894914;29;20507;-75
2020/12/08 17:25:39;;;;;;;18.85;8.55;;;2.90;99.90;;;;;;4896767;29;20049;-75
2020/12/08 17:28:05;;;;;;;20.25;8.90;;;3.00;99.90;;;;;;4884673;29;20162;-76
2020/12/08 17:30:31;;;;;;;18.08;8.98;;;2.80;99.90;;;;;;4896117;29;20028;-77
2020/12/08 17:32:56;;;;;;;20.65;8.90;;;2.70;99.90;;;;;;4895950;29;20043;-77
2020/12/08 17:35:22;;;;;;;19.05;9.10;;;2.70;99.90;;;;;;4896281;29;20512;-81
2020/12/08 17:37:49;;;;;;;17.50;8.95;;;2.60;99.90;;;;;;4897013;29;20388;-83
2020/12/08 17:40:19;;;;;;;18.27;9.10;;;2.60;99.90;;;;;;4898682;29;20029;-79
2020/12/08 17:42:46;;;;;;;18.05;8.98;;;2.50;99.90;;;;;;4887662;29;20052;-82
2020/12/08 17:45:12;;;;;;;22.65;8.95;;;2.60;99.90;;;;;;4880233;29;20043;-77
2020/12/08 17:47:44;;;;;;;21.17;8.63;;;2.60;99.90;;;;;;4898246;29;20116;-76
2020/12/08 17:50:15;;;;;;;20.05;9.60;;;2.50;99.90;;;;;;4890095;29;20028;-77
2020/12/08 17:52:42;;;;;;;18.60;9.85;;;2.50;99.90;;;;;;4892620;29;20036;-76
2020/12/08 17:55:08;;;;;;;17.02;8.98;;;2.50;99.90;;;;;;4898725;29;20504;-77
2020/12/08 17:57:41;;;;;;;16.25;9.02;;;2.50;99.90;;;;;;4899378;29;20036;-81
2020/12/08 18:00:09;;;;;;;19.35;10.27;;;2.50;99.90;;;;;;4899155;29;20430;-80
2020/12/08 18:02:38;;;;;;;27.42;9.80;;;2.50;99.90;;;;;;4898611;29;21436;-82
2020/12/08 18:05:09;;;;;;;21.38;9.68;;;2.50;99.90;;;;;;4890822;29;20025;-80
2020/12/08 18:07:37;;;;;;;22.67;9.55;;;2.50;99.90;;;;;;4888897;29;20040;-78
2020/12/08 18:10:05;;;;;;;26.55;9.88;;;2.50;99.90;;;;;;4898833;29;20135;-74
2020/12/08 18:12:32;;;;;;;18.77;9.98;;;2.40;99.90;;;;;;4898813;29;20092;-79